sensor_id;sensor_type;location;lat;lon;timestamp;pressure;altitude;pressure_sealevel;temperature;humidity
76605;BME280;73179;50.978;16.998;2024-01-15T00:00:44;98242.06;;;-0.06;79.89
76605;BME280;73179;50.978;16.998;2024-01-15T00:03:30;98257.00;;;0.11;79.40
76605;BME280;73179;50.978;16.998;2024-01-15T00:05:56;98309.22;;;0.42;79.70
76605;BME280;73179;50.978;16.998;2024-01-15T00:08:22;98267.38;;;0.17;79.88
76605;BME280;73179;50.978;16.998;2024-01-15T00:10:48;98099.13;;;-0.96;79.56
76605;BME280;73179;50.978;16.998;2024-01-15T00:13:14;98287.91;;;0.42;79.55
76605;BME280;73179;50.978;16.998;2024-01-15T00:15:40;98134.03;;;-0.62;79.40
76605;BME280;73179;50.978;16.998;2024-01-15T00:18:06;98272.47;;;0.39;79.26
76605;BME280;73179;50.978;16.998;2024-01-15T00:20:32;98241.84;;;0.21;79.15
76605;BME280;73179;50.978;16.998;2024-01-15T00:22:58;98091.25;;;-0.66;79.22
76605;BME280;73179;50.978;16.998;2024-01-15T00:25:24;98226.44;;;0.18;78.94
76605;BME280;73179;50.978;16.998;2024-01-15T00:27:51;98258.91;;;0.45;78.92
76605;BME280;73179;50.978;16.998;2024-01-15T00:30:17;98214.72;;;0.19;79.13
76605;BME280;73179;50.978;16.998;2024-01-15T00:32:43;98184.91;;;-0.03;78.56
76605;BME280;73179;50.978;16.998;2024-01-15T00:35:09;98182.25;;;0.02;78.53
76605;BME280;73179;50.978;16.998;2024-01-15T00:37:35;98124.25;;;-0.31;78.71
76605;BME280;73179;50.978;16.998;2024-01-15T00:40:01;98213.13;;;0.18;78.93
76605;BME280;73179;50.978;16.998;2024-01-15T00:42:27;98017.88;;;-0.97;79.26
76605;BME280;73179;50.978;16.998;2024-01-15T00:44:53;98166.28;;;-0.08;79.33
76605;BME280;73179;50.978;16.998;2024-01-15T00:47:20;98198.75;;;0.09;78.60
76605;BME280;73179;50.978;16.998;2024-01-15T00:49:46;98126.91;;;-0.36;78.59
76605;BME280;73179;50.978;16.998;2024-01-15T00:52:12;98014.69;;;-0.99;79.01
76605;BME280;73179;50.978;16.998;2024-01-15T00:54:38;98074.78;;;-0.63;79.42
76605;BME280;73179;50.978;16.998;2024-01-15T00:57:06;98153.00;;;-0.13;78.94
76605;BME280;73179;50.978;16.998;2024-01-15T00:59:32;98213.13;;;0.33;78.91
76605;BME280;73179;50.978;16.998;2024-01-15T01:01:58;98204.63;;;0.26;78.90
76605;BME280;73179;50.978;16.998;2024-01-15T01:04:23;98169.78;;;0.08;79.11
76605;BME280;73179;50.978;16.998;2024-01-15T01:06:50;98206.22;;;0.32;79.25
76605;BME280;73179;50.978;16.998;2024-01-15T01:09:15;98060.44;;;-0.67;78.41
76605;BME280;73179;50.978;16.998;2024-01-15T01:11:42;98223.50;;;0.35;78.79
76605;BME280;73179;50.978;16.998;2024-01-15T01:14:08;98151.91;;;-0.07;79.11
76605;BME280;73179;50.978;16.998;2024-01-15T01:16:34;98174.03;;;0.19;78.56
76605;BME280;73179;50.978;16.998;2024-01-15T01:19:07;98167.63;;;0.10;78.05
76605;BME280;73179;50.978;16.998;2024-01-15T01:21:33;98134.38;;;-0.08;78.65
76605;BME280;73179;50.978;16.998;2024-01-15T01:23:59;98015.50;;;-0.83;78.86
76605;BME280;73179;50.978;16.998;2024-01-15T01:26:25;98146.63;;;0.03;78.46
76605;BME280;73179;50.978;16.998;2024-01-15T01:28:51;97988.13;;;-1.04;78.32
76605;BME280;73179;50.978;16.998;2024-01-15T01:31:18;98144.50;;;-0.05;78.46
76605;BME280;73179;50.978;16.998;2024-01-15T01:33:43;98174.00;;;0.29;77.94
76605;BME280;73179;50.978;16.998;2024-01-15T01:36:10;98130.13;;;0.06;77.44
76605;BME280;73179;50.978;16.998;2024-01-15T01:38:36;98121.88;;;-0.03;77.63
76605;BME280;73179;50.978;16.998;2024-01-15T01:41:03;98132.00;;;0.11;77.54
76605;BME280;73179;50.978;16.998;2024-01-15T01:43:29;98118.16;;;0.14;77.05
76605;BME280;73179;50.978;16.998;2024-01-15T01:45:56;98066.59;;;-0.21;77.22
76605;BME280;73179;50.978;16.998;2024-01-15T01:48:24;98095.56;;;0.06;76.08
76605;BME280;73179;50.978;16.998;2024-01-15T01:50:57;98137.84;;;0.38;77.17
76605;BME280;73179;50.978;16.998;2024-01-15T01:53:28;98097.94;;;0.13;76.23
76605;BME280;73179;50.978;16.998;2024-01-15T01:55:56;98104.88;;;0.19;76.45
76605;BME280;73179;50.978;16.998;2024-01-15T01:58:23;98061.78;;;-0.04;76.17
76605;BME280;73179;50.978;16.998;2024-01-15T02:00:49;98058.59;;;-0.06;75.58
76605;BME280;73179;50.978;16.998;2024-01-15T02:03:15;98152.97;;;0.58;75.55
76605;BME280;73179;50.978;16.998;2024-01-15T02:05:43;98148.97;;;0.55;76.71
76605;BME280;73179;50.978;16.998;2024-01-15T02:08:10;97973.31;;;-0.60;75.86
76605;BME280;73179;50.978;16.998;2024-01-15T02:10:36;98148.72;;;0.57;76.61
76605;BME280;73179;50.978;16.998;2024-01-15T02:13:02;98121.06;;;0.32;76.34
76605;BME280;73179;50.978;16.998;2024-01-15T02:15:28;98087.03;;;0.19;75.69
76605;BME280;73179;50.978;16.998;2024-01-15T02:18:02;98074.81;;;0.18;75.21
76605;BME280;73179;50.978;16.998;2024-01-15T02:20:29;98041.03;;;0.04;75.41
76605;BME280;73179;50.978;16.998;2024-01-15T02:23:08;98133.50;;;0.67;74.98
76605;BME280;73179;50.978;16.998;2024-01-15T02:25:41;97982.84;;;-0.33;75.33
76605;BME280;73179;50.978;16.998;2024-01-15T02:28:11;98129.50;;;0.70;74.83
76605;BME280;73179;50.978;16.998;2024-01-15T02:30:39;98133.78;;;0.71;74.26
76605;BME280;73179;50.978;16.998;2024-01-15T02:33:06;98049.50;;;0.26;74.40
76605;BME280;73179;50.978;16.998;2024-01-15T02:35:33;98012.59;;;-0.11;75.40
76605;BME280;73179;50.978;16.998;2024-01-15T02:37:59;98080.06;;;0.48;75.02
76605;BME280;73179;50.978;16.998;2024-01-15T02:40:25;98045.50;;;0.23;75.70
76605;BME280;73179;50.978;16.998;2024-01-15T02:42:51;98070.78;;;0.26;75.61
76605;BME280;73179;50.978;16.998;2024-01-15T02:45:17;98022.91;;;0.16;75.24
76605;BME280;73179;50.978;16.998;2024-01-15T02:47:43;98051.63;;;0.24;76.10
76605;BME280;73179;50.978;16.998;2024-01-15T02:50:09;98086.72;;;0.46;75.58
76605;BME280;73179;50.978;16.998;2024-01-15T02:52:35;98061.97;;;0.35;75.49
76605;BME280;73179;50.978;16.998;2024-01-15T02:55:01;98067.31;;;0.40;75.52
76605;BME280;73179;50.978;16.998;2024-01-15T02:57:27;98013.91;;;0.07;75.85
76605;BME280;73179;50.978;16.998;2024-01-15T02:59:53;98052.44;;;0.34;76.14
76605;BME280;73179;50.978;16.998;2024-01-15T03:02:19;98081.13;;;0.47;76.15
76605;BME280;73179;50.978;16.998;2024-01-15T03:04:45;98060.13;;;0.36;76.56
76605;BME280;73179;50.978;16.998;2024-01-15T03:07:11;98075.50;;;0.54;76.25
76605;BME280;73179;50.978;16.998;2024-01-15T03:09:38;98083.22;;;0.61;76.20
76605;BME280;73179;50.978;16.998;2024-01-15T03:12:04;98042.84;;;0.33;76.46
76605;BME280;73179;50.978;16.998;2024-01-15T03:14:30;98073.91;;;0.58;76.47
76605;BME280;73179;50.978;16.998;2024-01-15T03:16:56;98019.44;;;0.20;76.95
76605;BME280;73179;50.978;16.998;2024-01-15T03:19:22;98014.16;;;0.15;77.18
76605;BME280;73179;50.978;16.998;2024-01-15T03:21:48;98067.00;;;0.57;76.65
76605;BME280;73179;50.978;16.998;2024-01-15T03:24:14;98041.25;;;0.37;76.21
76605;BME280;73179;50.978;16.998;2024-01-15T03:26:40;98006.69;;;0.17;76.46
76605;BME280;73179;50.978;16.998;2024-01-15T03:29:07;97963.41;;;-0.14;76.19
76605;BME280;73179;50.978;16.998;2024-01-15T03:31:33;98052.94;;;0.41;76.73
76605;BME280;73179;50.978;16.998;2024-01-15T03:33:59;97961.31;;;-0.12;76.44
76605;BME280;73179;50.978;16.998;2024-01-15T03:36:25;98009.09;;;0.19;76.18
76605;BME280;73179;50.978;16.998;2024-01-15T03:38:53;97927.03;;;-0.33;75.59
76605;BME280;73179;50.978;16.998;2024-01-15T03:41:19;97876.09;;;-0.71;76.02
76605;BME280;73179;50.978;16.998;2024-01-15T03:43:45;97998.72;;;0.12;75.77
76605;BME280;73179;50.978;16.998;2024-01-15T03:46:11;98060.38;;;0.39;76.56
76605;BME280;73179;50.978;16.998;2024-01-15T03:48:38;97925.19;;;-0.38;75.95
76605;BME280;73179;50.978;16.998;2024-01-15T03:51:04;98008.81;;;0.20;75.46
76605;BME280;73179;50.978;16.998;2024-01-15T03:53:30;97994.47;;;0.21;75.49
76605;BME280;73179;50.978;16.998;2024-01-15T03:55:56;98027.38;;;0.45;75.26
76605;BME280;73179;50.978;16.998;2024-01-15T03:58:22;98007.19;;;0.29;75.12
76605;BME280;73179;50.978;16.998;2024-01-15T04:00:48;97992.59;;;0.12;75.59
76605;BME280;73179;50.978;16.998;2024-01-15T04:03:15;97971.31;;;0.12;75.41
76605;BME280;73179;50.978;16.998;2024-01-15T04:05:40;97972.94;;;0.13;75.74
76605;BME280;73179;50.978;16.998;2024-01-15T04:08:07;97997.63;;;0.28;75.58
76605;BME280;73179;50.978;16.998;2024-01-15T04:10:33;97899.16;;;-0.36;75.71
76605;BME280;73179;50.978;16.998;2024-01-15T04:12:59;97860.91;;;-0.50;74.10
76605;BME280;73179;50.978;16.998;2024-01-15T04:15:27;97980.34;;;0.26;73.83
76605;BME280;73179;50.978;16.998;2024-01-15T04:17:53;98030.00;;;0.56;74.74
76605;BME280;73179;50.978;16.998;2024-01-15T04:20:19;97971.38;;;0.02;74.20
76605;BME280;73179;50.978;16.998;2024-01-15T04:22:45;97983.31;;;0.04;74.86
76605;BME280;73179;50.978;16.998;2024-01-15T04:25:11;97809.72;;;-1.11;74.51
76605;BME280;73179;50.978;16.998;2024-01-15T04:27:37;97942.19;;;-0.24;75.03
76605;BME280;73179;50.978;16.998;2024-01-15T04:30:03;97963.13;;;-0.02;74.72
76605;BME280;73179;50.978;16.998;2024-01-15T04:32:30;97967.09;;;0.11;75.16
76605;BME280;73179;50.978;16.998;2024-01-15T04:34:56;97954.34;;;-0.08;74.34
76605;BME280;73179;50.978;16.998;2024-01-15T04:37:22;97844.22;;;-0.76;73.85
76605;BME280;73179;50.978;16.998;2024-01-15T04:39:48;97835.19;;;-0.75;73.85
76605;BME280;73179;50.978;16.998;2024-01-15T04:42:14;97910.00;;;-0.22;73.45
76605;BME280;73179;50.978;16.998;2024-01-15T04:44:40;98020.69;;;0.53;73.63
76605;BME280;73179;50.978;16.998;2024-01-15T04:47:06;97952.41;;;0.23;73.64
76605;BME280;73179;50.978;16.998;2024-01-15T04:49:32;97973.66;;;0.33;73.95
76605;BME280;73179;50.978;16.998;2024-01-15T04:51:58;97945.00;;;0.15;72.98
76605;BME280;73179;50.978;16.998;2024-01-15T04:54:24;97987.19;;;0.47;73.12
76605;BME280;73179;50.978;16.998;2024-01-15T04:56:50;98003.63;;;0.64;73.37
76605;BME280;73179;50.978;16.998;2024-01-15T04:59:16;97886.63;;;-0.20;73.06
76605;BME280;73179;50.978;16.998;2024-01-15T05:01:42;97975.47;;;0.43;72.93
76605;BME280;73179;50.978;16.998;2024-01-15T05:04:09;97949.22;;;0.21;73.58
76605;BME280;73179;50.978;16.998;2024-01-15T05:06:35;98011.06;;;0.62;73.15
76605;BME280;73179;50.978;16.998;2024-01-15T05:09:00;97860.34;;;-0.32;72.77
76605;BME280;73179;50.978;16.998;2024-01-15T05:11:27;97989.03;;;0.52;73.08
76605;BME280;73179;50.978;16.998;2024-01-15T05:13:53;97953.72;;;0.31;72.95
76605;BME280;73179;50.978;16.998;2024-01-15T05:16:19;97917.38;;;0.06;72.68
76605;BME280;73179;50.978;16.998;2024-01-15T05:18:45;97919.47;;;0.14;72.89
76605;BME280;73179;50.978;16.998;2024-01-15T05:21:11;97998.00;;;0.71;72.69
76605;BME280;73179;50.978;16.998;2024-01-15T05:23:38;97974.09;;;0.61;72.68
76605;BME280;73179;50.978;16.998;2024-01-15T05:26:04;97940.13;;;0.37;72.60
76605;BME280;73179;50.978;16.998;2024-01-15T05:28:30;98020.31;;;0.85;71.98
76605;BME280;73179;50.978;16.998;2024-01-15T05:30:56;97946.50;;;0.41;72.13
76605;BME280;73179;50.978;16.998;2024-01-15T05:33:23;97886.50;;;0.05;73.20
76605;BME280;73179;50.978;16.998;2024-01-15T05:35:50;97901.91;;;0.13;73.73
76605;BME280;73179;50.978;16.998;2024-01-15T05:38:16;97936.94;;;0.35;73.26
76605;BME280;73179;50.978;16.998;2024-01-15T05:40:43;97901.94;;;0.08;73.12
76605;BME280;73179;50.978;16.998;2024-01-15T05:43:09;97857.38;;;-0.25;73.26
76605;BME280;73179;50.978;16.998;2024-01-15T05:45:35;97894.31;;;-0.19;73.73
76605;BME280;73179;50.978;16.998;2024-01-15T05:48:01;97820.28;;;-0.56;74.74
76605;BME280;73179;50.978;16.998;2024-01-15T05:50:27;97799.66;;;-0.89;77.06
76605;BME280;73179;50.978;16.998;2024-01-15T05:52:53;97887.22;;;-0.49;78.46
76605;BME280;73179;50.978;16.998;2024-01-15T05:55:19;97971.41;;;-0.14;80.63
76605;BME280;73179;50.978;16.998;2024-01-15T05:57:45;97968.50;;;-0.27;81.01
76605;BME280;73179;50.978;16.998;2024-01-15T06:00:12;97968.78;;;-0.39;82.18
76605;BME280;73179;50.978;16.998;2024-01-15T06:02:38;98012.63;;;-0.16;83.10
76605;BME280;73179;50.978;16.998;2024-01-15T06:05:05;97998.03;;;-0.39;83.91
76605;BME280;73179;50.978;16.998;2024-01-15T06:07:34;98053.03;;;-0.09;85.26
76605;BME280;73179;50.978;16.998;2024-01-15T06:10:00;98043.72;;;-0.37;86.05
76605;BME280;73179;50.978;16.998;2024-01-15T06:12:26;98004.91;;;-0.63;86.36
76605;BME280;73179;50.978;16.998;2024-01-15T06:14:53;97994.03;;;-0.67;85.74
76605;BME280;73179;50.978;16.998;2024-01-15T06:17:19;97939.81;;;-0.96;85.16
76605;BME280;73179;50.978;16.998;2024-01-15T06:19:45;98054.88;;;-0.15;85.00
76605;BME280;73179;50.978;16.998;2024-01-15T06:22:11;98063.91;;;-0.11;84.38
76605;BME280;73179;50.978;16.998;2024-01-15T06:24:37;97853.47;;;-1.54;84.29
76605;BME280;73179;50.978;16.998;2024-01-15T06:27:04;97937.16;;;-1.01;84.38
76605;BME280;73179;50.978;16.998;2024-01-15T06:29:30;97996.94;;;-0.53;84.39
76605;BME280;73179;50.978;16.998;2024-01-15T06:31:56;97858.53;;;-1.42;83.79
76605;BME280;73179;50.978;16.998;2024-01-15T06:34:22;97862.28;;;-1.33;83.53
76605;BME280;73179;50.978;16.998;2024-01-15T06:36:48;98022.19;;;-0.45;83.78
76605;BME280;73179;50.978;16.998;2024-01-15T06:39:15;98016.31;;;-0.42;83.04
76605;BME280;73179;50.978;16.998;2024-01-15T06:41:40;98008.91;;;-0.56;83.56
76605;BME280;73179;50.978;16.998;2024-01-15T06:44:10;98038.16;;;-0.35;82.98
76605;BME280;73179;50.978;16.998;2024-01-15T06:46:36;98030.41;;;-0.27;82.71
76605;BME280;73179;50.978;16.998;2024-01-15T06:49:03;98068.41;;;-0.11;82.50
76605;BME280;73179;50.978;16.998;2024-01-15T06:51:29;97946.44;;;-0.88;81.58
76605;BME280;73179;50.978;16.998;2024-01-15T06:53:55;98039.19;;;-0.26;81.66
76605;BME280;73179;50.978;16.998;2024-01-15T06:56:21;97981.25;;;-0.65;80.67
76605;BME280;73179;50.978;16.998;2024-01-15T06:58:47;97981.53;;;-0.71;80.90
76605;BME280;73179;50.978;16.998;2024-01-15T07:01:13;98034.69;;;-0.36;80.84
76605;BME280;73179;50.978;16.998;2024-01-15T07:03:39;98081.72;;;-0.01;80.75
76605;BME280;73179;50.978;16.998;2024-01-15T07:06:05;97894.91;;;-1.23;79.47
76605;BME280;73179;50.978;16.998;2024-01-15T07:08:32;98019.53;;;-0.40;79.70
76605;BME280;73179;50.978;16.998;2024-01-15T07:10:58;98064.69;;;-0.15;79.62
76605;BME280;73179;50.978;16.998;2024-01-15T07:13:27;98066.84;;;-0.17;79.55
76605;BME280;73179;50.978;16.998;2024-01-15T07:15:53;97923.38;;;-1.08;79.08
76605;BME280;73179;50.978;16.998;2024-01-15T07:18:19;98020.06;;;-0.49;79.19
76605;BME280;73179;50.978;16.998;2024-01-15T07:20:45;97867.56;;;-1.49;79.10
76605;BME280;73179;50.978;16.998;2024-01-15T07:23:11;98067.09;;;-0.04;79.86
76605;BME280;73179;50.978;16.998;2024-01-15T07:25:37;98096.88;;;0.14;79.32
76605;BME280;73179;50.978;16.998;2024-01-15T07:28:04;98030.72;;;-0.23;79.13
76605;BME280;73179;50.978;16.998;2024-01-15T07:30:30;98046.09;;;-0.10;78.95
76605;BME280;73179;50.978;16.998;2024-01-15T07:32:56;97992.41;;;-0.37;78.90
76605;BME280;73179;50.978;16.998;2024-01-15T07:35:22;98054.84;;;0.06;78.70
76605;BME280;73179;50.978;16.998;2024-01-15T07:37:49;98026.19;;;-0.28;78.38
76605;BME280;73179;50.978;16.998;2024-01-15T07:40:15;98030.94;;;-0.10;78.55
76605;BME280;73179;50.978;16.998;2024-01-15T07:42:41;98095.03;;;0.19;78.00
76605;BME280;73179;50.978;16.998;2024-01-15T07:45:09;98059.13;;;0.02;78.04
76605;BME280;73179;50.978;16.998;2024-01-15T07:47:36;97963.19;;;-0.68;78.59
76605;BME280;73179;50.978;16.998;2024-01-15T07:50:02;98009.69;;;-0.30;77.83
76605;BME280;73179;50.978;16.998;2024-01-15T07:52:30;98091.78;;;0.27;78.19
76605;BME280;73179;50.978;16.998;2024-01-15T07:54:56;97885.66;;;-1.00;77.78
76605;BME280;73179;50.978;16.998;2024-01-15T07:57:27;98067.06;;;0.17;77.18
76605;BME280;73179;50.978;16.998;2024-01-15T07:59:53;97930.00;;;-0.85;77.45
76605;BME280;73179;50.978;16.998;2024-01-15T08:02:19;97973.81;;;-0.53;78.04
76605;BME280;73179;50.978;16.998;2024-01-15T08:04:45;98058.59;;;0.10;77.50
76605;BME280;73179;50.978;16.998;2024-01-15T08:07:12;97970.63;;;-0.29;77.22
76605;BME280;73179;50.978;16.998;2024-01-15T08:09:38;97899.44;;;-0.58;75.89
76605;BME280;73179;50.978;16.998;2024-01-15T08:12:05;98034.56;;;0.35;75.80
76605;BME280;73179;50.978;16.998;2024-01-15T08:14:31;97964.22;;;-0.08;76.01
76605;BME280;73179;50.978;16.998;2024-01-15T08:16:58;97952.25;;;-0.11;75.56
76605;BME280;73179;50.978;16.998;2024-01-15T08:19:24;98011.50;;;0.15;75.48
76605;BME280;73179;50.978;16.998;2024-01-15T08:21:53;97976.69;;;0.07;74.87
76605;BME280;73179;50.978;16.998;2024-01-15T08:24:19;98015.94;;;0.35;75.56
76605;BME280;73179;50.978;16.998;2024-01-15T08:26:45;97993.13;;;0.19;75.09
76605;BME280;73179;50.978;16.998;2024-01-15T08:29:11;98023.13;;;0.39;75.15
76605;BME280;73179;50.978;16.998;2024-01-15T08:31:37;98041.16;;;0.63;74.40
76605;BME280;73179;50.978;16.998;2024-01-15T08:34:03;97990.19;;;0.25;74.58
76605;BME280;73179;50.978;16.998;2024-01-15T08:36:29;98056.81;;;0.74;72.61
76605;BME280;73179;50.978;16.998;2024-01-15T08:38:56;98054.13;;;0.79;73.29
76605;BME280;73179;50.978;16.998;2024-01-15T08:41:23;98010.31;;;0.57;73.42
76605;BME280;73179;50.978;16.998;2024-01-15T08:43:49;98036.31;;;0.75;72.79
76605;BME280;73179;50.978;16.998;2024-01-15T08:46:15;98059.16;;;0.91;72.17
76605;BME280;73179;50.978;16.998;2024-01-15T08:48:41;97918.97;;;-0.03;73.20
76605;BME280;73179;50.978;16.998;2024-01-15T08:51:07;97882.88;;;-0.19;72.39
76605;BME280;73179;50.978;16.998;2024-01-15T08:53:33;97994.63;;;0.50;71.76
76605;BME280;73179;50.978;16.998;2024-01-15T08:56:00;97917.63;;;0.05;71.13
76605;BME280;73179;50.978;16.998;2024-01-15T08:58:26;97907.28;;;-0.07;71.46
76605;BME280;73179;50.978;16.998;2024-01-15T09:00:53;97966.75;;;0.37;71.05
76605;BME280;73179;50.978;16.998;2024-01-15T09:03:18;98037.84;;;0.91;70.54
76605;BME280;73179;50.978;16.998;2024-01-15T09:05:45;97974.16;;;0.45;69.84
76605;BME280;73179;50.978;16.998;2024-01-15T09:08:11;97963.78;;;0.44;70.25
76605;BME280;73179;50.978;16.998;2024-01-15T09:10:38;98033.03;;;0.93;70.47
76605;BME280;73179;50.978;16.998;2024-01-15T09:13:04;97982.88;;;0.61;70.56
76605;BME280;73179;50.978;16.998;2024-01-15T09:15:30;98074.22;;;1.16;70.33
76605;BME280;73179;50.978;16.998;2024-01-15T09:17:56;98063.81;;;1.19;69.52
76605;BME280;73179;50.978;16.998;2024-01-15T09:20:24;97874.34;;;-0.11;68.28
76605;BME280;73179;50.978;16.998;2024-01-15T09:22:53;97954.91;;;0.59;68.89
76605;BME280;73179;50.978;16.998;2024-01-15T09:25:19;98006.47;;;0.83;69.02
76605;BME280;73179;50.978;16.998;2024-01-15T09:27:45;98040.34;;;1.21;68.39
76605;BME280;73179;50.978;16.998;2024-01-15T09:30:12;97946.41;;;0.62;69.14
76605;BME280;73179;50.978;16.998;2024-01-15T09:32:38;97953.78;;;0.75;68.43
76605;BME280;73179;50.978;16.998;2024-01-15T09:35:04;97924.06;;;0.58;67.50
76605;BME280;73179;50.978;16.998;2024-01-15T09:37:34;97836.56;;;-0.03;68.07
76605;BME280;73179;50.978;16.998;2024-01-15T09:40:00;97739.03;;;-0.67;68.40
76605;BME280;73179;50.978;16.998;2024-01-15T09:42:27;97941.66;;;0.48;68.05
76605;BME280;73179;50.978;16.998;2024-01-15T09:44:55;98017.50;;;1.05;68.19
76605;BME280;73179;50.978;16.998;2024-01-15T09:47:21;97871.34;;;0.11;68.66
76605;BME280;73179;50.978;16.998;2024-01-15T09:49:48;97750.47;;;-0.71;68.56
76605;BME280;73179;50.978;16.998;2024-01-15T09:52:14;97968.75;;;0.61;68.14
76605;BME280;73179;50.978;16.998;2024-01-15T09:54:43;98062.69;;;1.30;68.98
76605;BME280;73179;50.978;16.998;2024-01-15T09:57:10;97964.34;;;0.90;68.71
76605;BME280;73179;50.978;16.998;2024-01-15T09:59:37;98013.44;;;1.23;67.91
76605;BME280;73179;50.978;16.998;2024-01-15T10:02:05;97920.28;;;0.64;68.64
76605;BME280;73179;50.978;16.998;2024-01-15T10:04:33;98056.78;;;1.38;69.33
76605;BME280;73179;50.978;16.998;2024-01-15T10:07:00;98007.41;;;1.02;68.66
76605;BME280;73179;50.978;16.998;2024-01-15T10:09:27;98057.31;;;1.35;67.92
76605;BME280;73179;50.978;16.998;2024-01-15T10:11:53;98065.59;;;1.34;68.94
76605;BME280;73179;50.978;16.998;2024-01-15T10:14:20;98030.50;;;1.17;69.61
76605;BME280;73179;50.978;16.998;2024-01-15T10:16:45;97887.53;;;0.19;68.15
76605;BME280;73179;50.978;16.998;2024-01-15T10:19:12;98049.84;;;1.37;68.80
76605;BME280;73179;50.978;16.998;2024-01-15T10:21:38;98016.38;;;1.16;67.52
76605;BME280;73179;50.978;16.998;2024-01-15T10:24:04;97999.13;;;1.09;68.63
76605;BME280;73179;50.978;16.998;2024-01-15T10:26:32;98024.34;;;1.21;68.92
76605;BME280;73179;50.978;16.998;2024-01-15T10:28:58;97904.41;;;0.48;67.47
76605;BME280;73179;50.978;16.998;2024-01-15T10:31:27;97983.69;;;1.06;68.78
76605;BME280;73179;50.978;16.998;2024-01-15T10:34:02;98009.75;;;1.14;68.11
76605;BME280;73179;50.978;16.998;2024-01-15T10:36:35;97955.03;;;0.92;68.27
76605;BME280;73179;50.978;16.998;2024-01-15T10:39:01;98035.84;;;1.56;68.19
76605;BME280;73179;50.978;16.998;2024-01-15T10:41:27;97889.97;;;0.65;67.88
76605;BME280;73179;50.978;16.998;2024-01-15T10:43:53;97997.03;;;1.39;68.57
76605;BME280;73179;50.978;16.998;2024-01-15T10:46:19;98025.50;;;1.49;68.00
76605;BME280;73179;50.978;16.998;2024-01-15T10:48:45;98003.16;;;1.40;67.96
76605;BME280;73179;50.978;16.998;2024-01-15T10:51:11;97992.72;;;1.49;68.55
76605;BME280;73179;50.978;16.998;2024-01-15T10:53:39;97896.84;;;1.05;67.40
76605;BME280;73179;50.978;16.998;2024-01-15T10:56:06;97954.38;;;1.44;67.23
76605;BME280;73179;50.978;16.998;2024-01-15T10:58:33;97958.59;;;1.51;66.32
76605;BME280;73179;50.978;16.998;2024-01-15T11:00:59;97992.03;;;1.67;67.44
76605;BME280;73179;50.978;16.998;2024-01-15T11:03:28;97959.69;;;1.44;66.95
76605;BME280;73179;50.978;16.998;2024-01-15T11:05:54;97878.56;;;0.93;67.01
76605;BME280;73179;50.978;16.998;2024-01-15T11:08:21;97820.84;;;0.50;66.71
76605;BME280;73179;50.978;16.998;2024-01-15T11:10:50;97957.91;;;1.35;66.48
76605;BME280;73179;50.978;16.998;2024-01-15T11:16:01;97785.25;;;0.40;65.75
76605;BME280;73179;50.978;16.998;2024-01-15T11:18:29;97976.81;;;1.67;66.12
76605;BME280;73179;50.978;16.998;2024-01-15T11:26:45;98006.69;;;1.98;67.20
76605;BME280;73179;50.978;16.998;2024-01-15T11:34:53;98004.31;;;1.97;65.69
76605;BME280;73179;50.978;16.998;2024-01-15T11:37:20;97825.91;;;0.85;66.41
76605;BME280;73179;50.978;16.998;2024-01-15T11:39:47;97943.50;;;1.70;66.40
76605;BME280;73179;50.978;16.998;2024-01-15T11:42:14;97788.16;;;0.78;64.86
76605;BME280;73179;50.978;16.998;2024-01-15T11:44:40;97974.22;;;1.91;65.06
76605;BME280;73179;50.978;16.998;2024-01-15T11:47:10;97975.38;;;1.80;65.00
76605;BME280;73179;50.978;16.998;2024-01-15T11:52:26;97871.31;;;1.04;64.46
76605;BME280;73179;50.978;16.998;2024-01-15T11:57:50;97890.09;;;1.17;65.56
76605;BME280;73179;50.978;16.998;2024-01-15T12:00:16;97999.75;;;1.97;64.05
76605;BME280;73179;50.978;16.998;2024-01-15T12:02:44;97835.09;;;1.03;64.63
76605;BME280;73179;50.978;16.998;2024-01-15T12:05:12;97903.63;;;1.55;63.68
76605;BME280;73179;50.978;16.998;2024-01-15T12:07:43;97789.97;;;0.82;65.03
76605;BME280;73179;50.978;16.998;2024-01-15T12:10:18;97991.09;;;2.10;64.10
76605;BME280;73179;50.978;16.998;2024-01-15T12:13:00;97990.88;;;2.07;64.77
76605;BME280;73179;50.978;16.998;2024-01-15T12:15:32;97842.31;;;0.97;64.48
76605;BME280;73179;50.978;16.998;2024-01-15T12:17:59;97829.31;;;0.90;64.27
76605;BME280;73179;50.978;16.998;2024-01-15T12:20:27;97983.63;;;1.83;64.60
76605;BME280;73179;50.978;16.998;2024-01-15T12:22:53;97975.88;;;1.82;64.34
76605;BME280;73179;50.978;16.998;2024-01-15T12:25:22;98019.22;;;1.98;64.68
76605;BME280;73179;50.978;16.998;2024-01-15T12:27:48;98017.34;;;1.98;64.40
76605;BME280;73179;50.978;16.998;2024-01-15T12:30:15;97962.81;;;1.57;64.92
76605;BME280;73179;50.978;16.998;2024-01-15T12:32:41;97915.00;;;1.31;64.58
76605;BME280;73179;50.978;16.998;2024-01-15T12:35:08;97813.63;;;0.55;64.66
76605;BME280;73179;50.978;16.998;2024-01-15T12:37:39;97832.72;;;0.62;64.17
76605;BME280;73179;50.978;16.998;2024-01-15T12:40:07;97946.50;;;1.29;64.77
76605;BME280;73179;50.978;16.998;2024-01-15T12:42:33;97998.25;;;1.57;64.78
76605;BME280;73179;50.978;16.998;2024-01-15T12:45:00;97974.41;;;1.37;65.12
76605;BME280;73179;50.978;16.998;2024-01-15T12:47:26;97836.50;;;0.56;65.61
76605;BME280;73179;50.978;16.998;2024-01-15T12:49:53;97948.16;;;1.20;66.33
76605;BME280;73179;50.978;16.998;2024-01-15T12:52:20;97970.22;;;1.31;66.28
76605;BME280;73179;50.978;16.998;2024-01-15T12:54:49;97964.13;;;1.20;67.12
76605;BME280;73179;50.978;16.998;2024-01-15T12:57:16;97947.66;;;1.13;66.95
76605;BME280;73179;50.978;16.998;2024-01-15T12:59:44;97981.72;;;1.21;66.73
76605;BME280;73179;50.978;16.998;2024-01-15T13:02:14;97864.56;;;0.38;66.39
76605;BME280;73179;50.978;16.998;2024-01-15T13:04:40;97950.47;;;0.93;65.98
76605;BME280;73179;50.978;16.998;2024-01-15T13:07:06;97838.28;;;0.27;67.26
76605;BME280;73179;50.978;16.998;2024-01-15T13:09:33;97895.06;;;0.51;67.47
76605;BME280;73179;50.978;16.998;2024-01-15T13:12:00;97954.47;;;0.90;67.69
76605;BME280;73179;50.978;16.998;2024-01-15T13:14:28;97990.53;;;1.17;67.63